createdAt,value
2022-12-03T00:00:13.427Z,78.34
2022-12-03T00:00:25.617Z,78.59
2022-12-03T00:00:37.728Z,78.05
2022-12-03T00:00:49.673Z,78.14
2022-12-03T00:01:01.782Z,78.40
2022-12-03T00:01:14.237Z,77.75
2022-12-03T00:01:26.562Z,78.13
2022-12-03T00:01:38.506Z,78.03
2022-12-03T00:01:50.646Z,78.06
2022-12-03T00:02:02.603Z,77.95
2022-12-03T00:02:15.087Z,78.22
2022-12-03T00:02:27.223Z,77.75
2022-12-03T00:02:39.743Z,77.85
2022-12-03T00:02:51.987Z,78.14
2022-12-03T00:03:04.571Z,78.24
2022-12-03T00:03:17.373Z,77.81
2022-12-03T00:03:30.495Z,78.04
2022-12-03T00:03:43.377Z,77.76
2022-12-03T00:03:55.943Z,77.84
2022-12-03T00:04:08.211Z,77.86
2022-12-03T00:04:20.175Z,78.26
2022-12-03T00:04:32.119Z,78.25
2022-12-03T00:04:44.045Z,78.14
2022-12-03T00:04:56.135Z,78.20
2022-12-03T00:05:08.578Z,78.42
2022-12-03T00:05:20.913Z,77.84
2022-12-03T00:05:32.881Z,78.06
2022-12-03T00:05:48.832Z,78.33
2022-12-03T00:06:01.513Z,77.93
2022-12-03T00:06:13.408Z,78.22
2022-12-03T00:06:28.981Z,78.31
2022-12-03T00:06:43.483Z,78.05
2022-12-03T00:06:55.419Z,78.49
2022-12-03T00:07:07.458Z,77.41
2022-12-03T00:07:19.373Z,77.72
2022-12-03T00:07:31.323Z,77.69
2022-12-03T00:07:43.374Z,78.58
2022-12-03T00:07:55.560Z,78.02
2022-12-03T00:08:07.609Z,78.15
2022-12-03T00:08:19.857Z,78.53
2022-12-03T00:08:31.746Z,78.17
2022-12-03T00:08:43.732Z,78.40
2022-12-03T00:08:55.784Z,77.75
2022-12-03T00:09:07.935Z,78.03
2022-12-03T00:09:19.830Z,78.17
2022-12-03T00:09:31.749Z,78.08
2022-12-03T00:09:43.711Z,78.27
2022-12-03T00:09:55.597Z,78.03
2022-12-03T00:10:08.514Z,78.82
2022-12-03T00:10:20.451Z,78.58
2022-12-03T00:10:32.519Z,78.08
2022-12-03T00:10:44.485Z,78.16
2022-12-03T00:10:56.916Z,78.22
2022-12-03T00:11:08.860Z,78.13
2022-12-03T00:11:21.129Z,78.41
2022-12-03T00:11:33.367Z,78.61
2022-12-03T00:11:45.857Z,78.36
2022-12-03T00:11:57.781Z,78.31
2022-12-03T00:12:09.885Z,78.79
2022-12-03T00:12:21.869Z,77.80
2022-12-03T00:12:34.234Z,78.10
2022-12-03T00:12:46.470Z,78.19
2022-12-03T00:12:58.906Z,78.53
2022-12-03T00:13:10.777Z,77.92
2022-12-03T00:13:22.778Z,78.41
2022-12-03T00:13:34.784Z,78.90
2022-12-03T00:13:46.885Z,79.03
2022-12-03T00:13:58.841Z,79.59
2022-12-03T00:14:10.845Z,78.85
2022-12-03T00:14:22.746Z,78.78
2022-12-03T00:14:36.135Z,78.87
2022-12-03T00:14:50.218Z,79.47
2022-12-03T00:15:02.335Z,78.90
2022-12-03T00:15:14.683Z,78.58
2022-12-03T00:15:26.690Z,78.54
2022-12-03T00:15:38.923Z,78.95
2022-12-03T00:15:51.278Z,78.95
2022-12-03T00:16:03.783Z,78.77
2022-12-03T00:16:15.768Z,78.90
2022-12-03T00:16:28.324Z,78.63
2022-12-03T00:16:40.444Z,78.98
2022-12-03T00:16:52.394Z,78.97
2022-12-03T00:17:04.301Z,78.98
2022-12-03T00:17:16.602Z,79.37
2022-12-03T00:17:28.795Z,78.79
2022-12-03T00:17:40.727Z,78.74
2022-12-03T00:17:52.750Z,79.12
2022-12-03T00:18:04.983Z,79.26
2022-12-03T00:18:16.903Z,79.83
2022-12-03T00:18:29.397Z,79.64
2022-12-03T00:18:41.289Z,80.23
2022-12-03T00:18:53.353Z,80.10
2022-12-03T00:19:07.587Z,79.77
2022-12-03T00:19:19.527Z,80.27
2022-12-03T00:19:31.467Z,80.04
2022-12-03T00:19:43.539Z,80.38
2022-12-03T00:19:55.495Z,80.73
2022-12-03T00:20:08.748Z,80.06
2022-12-03T00:20:23.414Z,80.49
2022-12-03T00:20:35.344Z,80.18
2022-12-03T00:20:47.341Z,80.28
2022-12-03T00:20:59.291Z,80.12
2022-12-03T00:21:11.285Z,80.23
2022-12-03T00:21:24.773Z,79.66
2022-12-03T00:21:37.099Z,79.47
2022-12-03T00:21:49.092Z,79.99
2022-12-03T00:22:01.060Z,79.74
2022-12-03T00:22:13.029Z,79.82
2022-12-03T00:22:24.940Z,80.09
2022-12-03T00:22:36.882Z,79.37
2022-12-03T00:22:49.216Z,79.68
2022-12-03T00:23:01.225Z,79.83
2022-12-03T00:23:13.190Z,79.13
2022-12-03T00:23:25.285Z,79.37
2022-12-03T00:23:41.815Z,79.63
2022-12-03T00:23:54.443Z,79.39
2022-12-03T00:24:06.969Z,79.12
2022-12-03T00:24:18.866Z,79.57
2022-12-03T00:24:31.358Z,78.73
2022-12-03T00:24:43.271Z,78.74
2022-12-03T00:24:55.770Z,78.57
2022-12-03T00:25:08.477Z,78.79
2022-12-03T00:25:20.413Z,78.65
2022-12-03T00:25:32.409Z,79.00
2022-12-03T00:25:44.360Z,77.97
2022-12-03T00:25:56.602Z,78.74
2022-12-03T00:26:08.512Z,78.76
2022-12-03T00:26:20.819Z,78.84
2022-12-03T00:26:32.784Z,78.61
2022-12-03T00:26:44.811Z,78.55
2022-12-03T00:26:56.746Z,78.55
2022-12-03T00:27:08.672Z,78.83
2022-12-03T00:27:20.626Z,78.64
2022-12-03T00:27:32.719Z,78.14
2022-12-03T00:27:44.926Z,78.60
2022-12-03T00:27:56.879Z,78.61
2022-12-03T00:28:08.835Z,77.71
2022-12-03T00:28:20.784Z,78.41
2022-12-03T00:28:32.786Z,77.71
2022-12-03T00:28:44.685Z,78.26
2022-12-03T00:28:57.625Z,77.86
2022-12-03T00:29:09.534Z,77.66
2022-12-03T00:29:21.467Z,77.39
2022-12-03T00:29:33.358Z,77.75
2022-12-03T00:29:45.714Z,77.92
2022-12-03T00:29:57.678Z,77.86
2022-12-03T00:30:11.028Z,78.16
2022-12-03T00:30:22.945Z,77.77
2022-12-03T00:30:35.330Z,78.51
2022-12-03T00:30:47.274Z,78.26
2022-12-03T00:30:59.637Z,78.10
2022-12-03T00:31:11.676Z,78.36
2022-12-03T00:31:24.989Z,78.28
2022-12-03T00:31:37.097Z,78.41
2022-12-03T00:31:49.131Z,77.92
2022-12-03T00:32:01.083Z,77.97
2022-12-03T00:32:14.184Z,78.71
2022-12-03T00:32:26.104Z,78.72
2022-12-03T00:32:38.093Z,79.14
2022-12-03T00:32:50.088Z,79.38
2022-12-03T00:33:02.486Z,78.95
2022-12-03T00:33:14.447Z,79.37
2022-12-03T00:33:26.498Z,79.14
2022-12-03T00:33:38.448Z,78.52
2022-12-03T00:33:52.343Z,79.00
2022-12-03T00:34:04.273Z,78.99
2022-12-03T00:34:16.392Z,79.36
2022-12-03T00:34:28.331Z,79.37
2022-12-03T00:34:40.284Z,78.80
2022-12-03T00:34:52.482Z,79.23
2022-12-03T00:35:04.998Z,79.01
2022-12-03T00:35:16.980Z,79.29
2022-12-03T00:35:28.900Z,78.84
2022-12-03T00:35:41.012Z,79.12
2022-12-03T00:35:52.978Z,78.34
2022-12-03T00:36:05.356Z,78.77
2022-12-03T00:36:17.422Z,79.01
2022-12-03T00:36:29.404Z,78.68
2022-12-03T00:36:41.407Z,79.07
2022-12-03T00:36:53.312Z,79.07
2022-12-03T00:37:05.415Z,79.31
2022-12-03T00:37:17.363Z,78.89
2022-12-03T00:37:29.506Z,79.02
2022-12-03T00:37:41.411Z,78.88
2022-12-03T00:37:53.865Z,78.67
2022-12-03T00:38:05.883Z,78.53
2022-12-03T00:38:18.400Z,77.99
2022-12-03T00:38:30.322Z,78.91
2022-12-03T00:38:42.268Z,78.71
2022-12-03T00:38:54.215Z,78.69
2022-12-03T00:39:06.155Z,78.31
2022-12-03T00:39:18.055Z,78.45
2022-12-03T00:39:30.527Z,77.99
2022-12-03T00:39:42.402Z,78.04
2022-12-03T00:39:54.617Z,78.39
2022-12-03T00:40:07.237Z,78.26
2022-12-03T00:40:19.483Z,78.12
2022-12-03T00:40:31.468Z,77.84
2022-12-03T00:40:43.590Z,78.13
2022-12-03T00:40:55.555Z,78.54
2022-12-03T00:41:07.537Z,78.70
2022-12-03T00:41:19.473Z,77.85
2022-12-03T00:41:31.441Z,78.44
2022-12-03T00:41:43.363Z,78.07
2022-12-03T00:41:55.306Z,78.50
2022-12-03T00:42:07.259Z,78.28
2022-12-03T00:42:19.175Z,78.17
2022-12-03T00:42:31.319Z,78.20
2022-12-03T00:42:43.263Z,78.72
2022-12-03T00:42:55.532Z,78.88
2022-12-03T00:43:07.670Z,78.69
2022-12-03T00:43:19.815Z,78.70
2022-12-03T00:43:31.772Z,78.97
2022-12-03T00:43:43.912Z,78.46
2022-12-03T00:43:57.592Z,78.89
2022-12-03T00:44:10.316Z,78.74
2022-12-03T00:44:22.268Z,79.01
2022-12-03T00:44:34.403Z,78.90
2022-12-03T00:44:46.299Z,78.30
2022-12-03T00:44:58.804Z,78.63
2022-12-03T00:45:11.114Z,78.47
2022-12-03T00:45:23.461Z,78.20
2022-12-03T00:45:35.401Z,78.76
2022-12-03T00:45:47.481Z,78.35
2022-12-03T00:45:59.456Z,79.03
2022-12-03T00:46:13.883Z,78.80
2022-12-03T00:46:27.970Z,78.48
2022-12-03T00:46:40.065Z,78.27
2022-12-03T00:46:52.094Z,78.59
2022-12-03T00:47:04.292Z,78.04
2022-12-03T00:47:16.361Z,78.30
2022-12-03T00:47:28.756Z,78.61
2022-12-03T00:47:40.708Z,78.13
2022-12-03T00:47:52.663Z,78.10
2022-12-03T00:48:05.023Z,78.09
2022-12-03T00:48:17.111Z,78.34
2022-12-03T00:48:29.094Z,77.74
2022-12-03T00:48:41.021Z,77.95
2022-12-03T00:48:53.448Z,78.09
2022-12-03T00:49:05.398Z,78.41
2022-12-03T00:49:17.436Z,78.69
2022-12-03T00:49:29.498Z,78.29
2022-12-03T00:49:41.468Z,78.10
2022-12-03T00:49:53.506Z,78.52
2022-12-03T00:50:06.374Z,78.13
2022-12-03T00:50:18.329Z,78.00
2022-12-03T00:50:30.332Z,77.57
2022-12-03T00:50:42.319Z,77.71
2022-12-03T00:50:54.487Z,77.75
2022-12-03T00:51:06.551Z,77.99
2022-12-03T00:51:19.419Z,78.07
2022-12-03T00:51:31.390Z,77.68
2022-12-03T00:51:43.357Z,77.79
2022-12-03T00:51:55.317Z,77.87
2022-12-03T00:52:07.318Z,78.49
2022-12-03T00:52:19.682Z,78.17
2022-12-03T00:52:31.696Z,78.54
2022-12-03T00:52:43.698Z,78.58
2022-12-03T00:52:55.911Z,77.74
2022-12-03T00:53:08.001Z,77.73
2022-12-03T00:53:19.916Z,77.95
2022-12-03T00:53:31.823Z,78.21
2022-12-03T00:53:43.781Z,78.32
2022-12-03T00:53:56.116Z,77.70
2022-12-03T00:54:08.422Z,78.41
2022-12-03T00:54:20.388Z,78.74
2022-12-03T00:54:32.468Z,78.18
2022-12-03T00:54:45.333Z,77.93
2022-12-03T00:54:57.394Z,78.29
2022-12-03T00:55:09.630Z,78.18
2022-12-03T00:55:22.139Z,78.52
2022-12-03T00:55:34.028Z,78.19
2022-12-03T00:55:46.034Z,78.15
2022-12-03T00:55:58.034Z,77.92
2022-12-03T00:56:09.979Z,78.42
2022-12-03T00:56:21.971Z,77.90
2022-12-03T00:56:33.981Z,78.43
2022-12-03T00:56:46.028Z,78.33
2022-12-03T00:56:57.974Z,78.19
2022-12-03T00:57:10.262Z,77.80
2022-12-03T00:57:22.197Z,78.30
2022-12-03T00:57:34.353Z,78.40
2022-12-03T00:57:47.002Z,78.98
2022-12-03T00:57:59.592Z,78.46
2022-12-03T00:58:11.565Z,79.00
2022-12-03T00:58:23.775Z,78.77
2022-12-03T00:58:36.148Z,79.08
2022-12-03T00:58:48.486Z,78.50
2022-12-03T00:59:00.447Z,78.63
2022-12-03T00:59:12.982Z,78.25
2022-12-03T00:59:25.075Z,78.41
2022-12-03T00:59:37.483Z,78.47
2022-12-03T00:59:49.558Z,78.27
2022-12-03T01:00:01.611Z,77.91
2022-12-03T01:00:14.500Z,78.09
2022-12-03T01:00:26.450Z,77.78
2022-12-03T01:00:38.378Z,77.68
2022-12-03T01:00:50.517Z,78.58
2022-12-03T01:01:02.835Z,78.80
2022-12-03T01:01:14.830Z,78.16
2022-12-03T01:01:26.822Z,78.45
2022-12-03T01:01:38.846Z,77.67
2022-12-03T01:01:51.030Z,78.37
2022-12-03T01:02:03.064Z,78.68
2022-12-03T01:02:15.223Z,78.18
2022-12-03T01:02:27.334Z,78.33
2022-12-03T01:02:39.374Z,78.09
2022-12-03T01:02:52.510Z,78.34
2022-12-03T01:03:04.543Z,78.72
2022-12-03T01:03:16.549Z,78.83
2022-12-03T01:03:28.683Z,79.26
2022-12-03T01:03:40.815Z,78.90
2022-12-03T01:03:52.703Z,79.54
2022-12-03T01:04:05.243Z,79.07
2022-12-03T01:04:17.326Z,79.09
2022-12-03T01:04:29.852Z,78.65
2022-12-03T01:04:41.880Z,79.13
2022-12-03T01:04:54.310Z,79.04
2022-12-03T01:05:06.797Z,79.21
2022-12-03T01:05:20.248Z,78.91
2022-12-03T01:05:32.231Z,78.62
2022-12-03T01:05:44.189Z,78.25
2022-12-03T01:05:56.171Z,78.62
2022-12-03T01:06:08.249Z,79.09
2022-12-03T01:06:20.162Z,78.20
2022-12-03T01:06:32.451Z,78.27
2022-12-03T01:06:44.395Z,78.30
2022-12-03T01:06:56.521Z,78.72
2022-12-03T01:07:08.593Z,79.04
2022-12-03T01:07:21.191Z,78.85
2022-12-03T01:07:33.225Z,78.54
2022-12-03T01:07:46.417Z,78.48
2022-12-03T01:07:58.786Z,78.86
2022-12-03T01:08:11.431Z,78.66
2022-12-03T01:08:24.151Z,78.55
2022-12-03T01:08:36.199Z,78.13
2022-12-03T01:08:48.421Z,78.32
2022-12-03T01:09:00.379Z,78.80
2022-12-03T01:09:12.469Z,78.69
2022-12-03T01:09:24.393Z,78.73
2022-12-03T01:09:36.638Z,78.97
2022-12-03T01:09:48.606Z,78.89
2022-12-03T01:10:01.318Z,78.21
2022-12-03T01:10:13.798Z,78.19
2022-12-03T01:10:26.107Z,78.18
2022-12-03T01:10:38.070Z,77.83
2022-12-03T01:10:50.034Z,78.87
2022-12-03T01:11:02.010Z,78.67
2022-12-03T01:11:32.767Z,79.31
2022-12-03T01:11:45.088Z,78.96
2022-12-03T01:11:57.381Z,78.76
2022-12-03T01:12:09.392Z,78.89
2022-12-03T01:12:21.729Z,78.64
2022-12-03T01:12:33.683Z,78.65
2022-12-03T01:12:45.616Z,78.07
2022-12-03T01:12:57.726Z,78.48
2022-12-03T01:13:09.984Z,78.57
2022-12-03T01:13:22.075Z,78.45
2022-12-03T01:13:33.959Z,78.94
2022-12-03T01:13:45.890Z,79.12
2022-12-03T01:13:58.230Z,79.17
2022-12-03T01:14:20.228Z,79.01
2022-12-03T01:14:32.294Z,79.36
2022-12-03T01:14:45.051Z,79.05
2022-12-03T01:14:57.021Z,78.62
2022-12-03T01:15:10.215Z,78.17
2022-12-03T01:15:22.121Z,78.71
2022-12-03T01:15:34.464Z,78.75
2022-12-03T01:15:46.600Z,78.44
2022-12-03T01:15:58.912Z,77.81
2022-12-03T01:16:10.921Z,78.13
2022-12-03T01:16:23.022Z,78.18
2022-12-03T01:16:35.883Z,78.20
2022-12-03T01:16:48.513Z,77.88
2022-12-03T01:17:00.546Z,78.15
2022-12-03T01:17:12.937Z,77.89
2022-12-03T01:17:24.938Z,77.90
2022-12-03T01:17:37.696Z,78.40
2022-12-03T01:17:49.706Z,78.68
2022-12-03T01:18:01.770Z,78.51
2022-12-03T01:18:13.725Z,78.97
2022-12-03T01:18:26.132Z,78.75
2022-12-03T01:18:38.198Z,79.25
2022-12-03T01:18:52.428Z,78.76
2022-12-03T01:19:05.854Z,78.77
2022-12-03T01:19:19.084Z,78.77
2022-12-03T01:19:31.082Z,78.51
2022-12-03T01:19:48.092Z,78.69
2022-12-03T01:20:01.786Z,78.46
2022-12-03T01:20:13.780Z,78.61
2022-12-03T01:20:26.045Z,78.27
2022-12-03T01:20:38.595Z,78.12
2022-12-03T01:20:50.827Z,78.53
2022-12-03T01:21:02.833Z,78.31
2022-12-03T01:21:14.748Z,78.84
2022-12-03T01:21:26.702Z,78.79
2022-12-03T01:21:38.578Z,79.10
2022-12-03T01:21:51.584Z,79.25
2022-12-03T01:22:03.635Z,79.08
2022-12-03T01:22:15.610Z,78.83
2022-12-03T01:22:28.224Z,79.40
2022-12-03T01:22:40.474Z,79.37
2022-12-03T01:22:52.504Z,79.73
2022-12-03T01:23:04.839Z,79.44
2022-12-03T01:23:16.775Z,79.12
2022-12-03T01:23:28.864Z,79.18
2022-12-03T01:23:40.766Z,79.11
2022-12-03T01:23:53.154Z,79.46
2022-12-03T01:24:05.470Z,79.64
2022-12-03T01:24:19.019Z,80.34
2022-12-03T01:24:31.400Z,80.01
2022-12-03T01:24:43.443Z,80.30
2022-12-03T01:24:55.615Z,80.64
2022-12-03T01:25:08.235Z,80.21
2022-12-03T01:25:20.185Z,80.68
2022-12-03T01:25:32.194Z,81.10
2022-12-03T01:25:44.319Z,80.80
2022-12-03T01:25:56.197Z,80.87
2022-12-03T01:26:08.627Z,80.37
2022-12-03T01:26:20.688Z,80.22
2022-12-03T01:26:32.857Z,80.67
2022-12-03T01:26:44.841Z,80.74
2022-12-03T01:26:57.857Z,80.12
2022-12-03T01:27:09.822Z,79.82
2022-12-03T01:27:21.857Z,79.95
2022-12-03T01:27:33.806Z,79.91
2022-12-03T01:27:46.165Z,79.65
2022-12-03T01:27:58.165Z,79.28
2022-12-03T01:28:10.412Z,79.58
2022-12-03T01:28:22.347Z,79.18
2022-12-03T01:28:34.479Z,79.21
2022-12-03T01:28:46.478Z,79.11
2022-12-03T01:28:58.416Z,79.36
2022-12-03T01:29:10.587Z,79.04
2022-12-03T01:29:22.527Z,79.15
2022-12-03T01:29:34.532Z,79.33
2022-12-03T01:29:46.485Z,79.31
2022-12-03T01:29:58.688Z,78.79
2022-12-03T01:30:12.347Z,78.89
2022-12-03T01:30:24.333Z,78.63
2022-12-03T01:30:56.277Z,78.40
2022-12-03T01:31:27.735Z,78.99
2022-12-03T01:31:58.086Z,78.75
2022-12-03T01:32:16.698Z,79.01
2022-12-03T01:32:28.650Z,78.65
2022-12-03T01:32:40.727Z,79.22
2022-12-03T01:32:52.733Z,78.57
2022-12-03T01:33:04.642Z,78.62
2022-12-03T01:33:16.559Z,78.00
2022-12-03T01:33:28.650Z,78.62
2022-12-03T01:33:40.565Z,78.47
2022-12-03T01:33:52.668Z,77.89
2022-12-03T01:34:05.181Z,78.02
2022-12-03T01:34:17.487Z,78.19
2022-12-03T01:34:29.465Z,78.23
2022-12-03T01:34:41.515Z,78.04
2022-12-03T01:34:55.524Z,78.48
2022-12-03T01:35:08.201Z,78.68
2022-12-03T01:35:20.208Z,77.92
2022-12-03T01:35:32.102Z,77.96
2022-12-03T01:35:43.973Z,78.49
2022-12-03T01:35:55.908Z,78.21
2022-12-03T01:36:08.215Z,78.33
2022-12-03T01:36:20.219Z,77.86
2022-12-03T01:36:34.254Z,77.65
2022-12-03T01:36:46.241Z,77.93
2022-12-03T01:36:58.184Z,78.76
2022-12-03T01:37:10.511Z,78.17
2022-12-03T01:37:25.390Z,77.62
2022-12-03T01:37:37.349Z,78.18
2022-12-03T01:37:49.496Z,77.97
2022-12-03T01:38:01.390Z,77.86
2022-12-03T01:38:13.370Z,78.15
2022-12-03T01:38:25.365Z,78.07
2022-12-03T01:38:37.298Z,78.26
2022-12-03T01:38:49.414Z,78.45
2022-12-03T01:39:02.316Z,77.85
2022-12-03T01:39:14.310Z,78.25
2022-12-03T01:39:26.279Z,77.74
2022-12-03T01:39:38.235Z,78.46
2022-12-03T01:39:50.235Z,77.70
2022-12-03T01:40:02.203Z,78.34
2022-12-03T01:40:19.571Z,78.46
2022-12-03T01:40:31.719Z,77.62
2022-12-03T01:40:43.705Z,78.37
2022-12-03T01:40:55.923Z,77.76
2022-12-03T01:41:11.719Z,77.64
2022-12-03T01:41:24.973Z,78.21
2022-12-03T01:41:37.165Z,77.59
2022-12-03T01:41:51.605Z,77.73
2022-12-03T01:42:04.720Z,78.33
2022-12-03T01:42:23.022Z,77.77
2022-12-03T01:42:39.323Z,78.12
2022-12-03T01:42:51.285Z,77.97
2022-12-03T01:43:03.310Z,78.00
2022-12-03T01:43:15.265Z,77.67
2022-12-03T01:43:27.178Z,77.72
2022-12-03T01:43:39.136Z,77.97
2022-12-03T01:43:51.780Z,77.84
2022-12-03T01:44:12.845Z,77.93
2022-12-03T01:44:30.026Z,78.21
2022-12-03T01:44:42.299Z,77.61
2022-12-03T01:44:56.953Z,77.89
2022-12-03T01:45:21.186Z,77.90
2022-12-03T01:45:33.498Z,78.09
2022-12-03T01:45:45.677Z,78.42
2022-12-03T01:45:57.652Z,78.24
2022-12-03T01:46:13.665Z,78.68
2022-12-03T01:46:34.946Z,78.00
2022-12-03T01:46:47.901Z,78.09
2022-12-03T01:47:03.633Z,78.55
2022-12-03T01:47:19.467Z,78.80
2022-12-03T01:47:34.269Z,79.02
2022-12-03T01:47:46.184Z,78.37
2022-12-03T01:47:58.157Z,78.59
2022-12-03T01:48:16.535Z,78.15
2022-12-03T01:48:34.124Z,77.96
2022-12-03T01:48:47.991Z,77.93
2022-12-03T01:49:00.185Z,78.00
2022-12-03T01:49:17.225Z,78.17
2022-12-03T01:49:36.401Z,77.44
2022-12-03T01:49:53.075Z,78.16
2022-12-03T01:50:17.815Z,77.52
2022-12-03T01:50:33.918Z,77.63
2022-12-03T01:50:46.278Z,77.10
2022-12-03T01:50:58.311Z,76.87
2022-12-03T01:51:10.501Z,77.54
2022-12-03T01:51:22.721Z,77.88
2022-12-03T01:51:34.702Z,77.65
2022-12-03T01:51:48.412Z,77.55
2022-12-03T01:52:00.617Z,77.81
2022-12-03T01:52:15.295Z,77.71
2022-12-03T01:52:31.323Z,78.04
2022-12-03T01:52:44.432Z,77.58
2022-12-03T01:53:00.496Z,77.58
2022-12-03T01:53:16.097Z,77.88
2022-12-03T01:53:28.070Z,77.46
2022-12-03T01:53:40.510Z,78.08
2022-12-03T01:53:52.442Z,77.97
2022-12-03T01:54:04.714Z,77.32
2022-12-03T01:54:27.029Z,77.81
2022-12-03T01:54:42.201Z,77.85
2022-12-03T01:54:57.954Z,78.30
2022-12-03T01:55:16.535Z,77.73
2022-12-03T01:55:29.190Z,77.86
2022-12-03T01:55:48.327Z,78.05
2022-12-03T01:56:00.871Z,78.24
2022-12-03T01:56:15.446Z,77.88
2022-12-03T01:56:28.029Z,77.92
2022-12-03T01:56:40.429Z,78.16
2022-12-03T01:56:54.274Z,77.73
2022-12-03T01:57:17.907Z,77.58
2022-12-03T01:57:42.078Z,78.55
2022-12-03T01:57:57.177Z,77.83
2022-12-03T01:58:13.843Z,78.04
2022-12-03T01:58:28.631Z,77.38
2022-12-03T01:58:41.887Z,78.02
2022-12-03T01:58:53.832Z,78.63
2022-12-03T01:59:05.798Z,78.32
2022-12-03T01:59:19.772Z,78.12
2022-12-03T01:59:38.532Z,78.30
2022-12-03T01:59:52.217Z,79.18
2022-12-03T02:00:04.621Z,79.02
2022-12-03T02:00:19.982Z,79.30
2022-12-03T02:00:32.058Z,79.61
2022-12-03T02:00:44.060Z,78.76
2022-12-03T02:00:58.990Z,78.91
2022-12-03T02:01:16.621Z,78.68
2022-12-03T02:01:28.693Z,78.50
2022-12-03T02:01:40.956Z,78.89
2022-12-03T02:01:52.937Z,78.87
2022-12-03T02:02:14.227Z,78.40
2022-12-03T02:02:31.106Z,78.58
2022-12-03T02:02:43.349Z,78.56
2022-12-03T02:03:02.188Z,78.67
2022-12-03T02:03:20.943Z,78.38
2022-12-03T02:03:33.027Z,78.71
2022-12-03T02:03:46.118Z,78.56
2022-12-03T02:03:58.442Z,78.89
2022-12-03T02:04:16.608Z,78.90
2022-12-03T02:04:29.828Z,78.66
2022-12-03T02:04:41.862Z,79.59
2022-12-03T02:04:55.042Z,78.82
2022-12-03T02:05:16.731Z,78.56
2022-12-03T02:05:31.193Z,78.34
2022-12-03T02:05:43.323Z,78.67
2022-12-03T02:05:56.821Z,78.76
2022-12-03T02:06:17.050Z,78.21
2022-12-03T02:06:30.038Z,78.66
2022-12-03T02:06:44.716Z,79.28
2022-12-03T02:06:57.426Z,78.59
2022-12-03T02:07:18.316Z,78.64
2022-12-03T02:07:32.770Z,78.37
2022-12-03T02:07:45.252Z,79.06
2022-12-03T02:07:58.270Z,77.90
2022-12-03T02:08:29.681Z,77.76
2022-12-03T02:08:41.752Z,78.24
2022-12-03T02:08:59.495Z,78.55
2022-12-03T02:09:12.982Z,78.57
2022-12-03T02:09:24.905Z,78.34
2022-12-03T02:09:36.842Z,78.57
2022-12-03T02:09:49.071Z,78.81
2022-12-03T02:10:03.261Z,78.31
2022-12-03T02:10:17.364Z,79.15
2022-12-03T02:10:35.748Z,78.28
2022-12-03T02:10:47.808Z,78.38
2022-12-03T02:11:05.246Z,78.39
2022-12-03T02:11:29.878Z,78.42
2022-12-03T02:11:49.314Z,78.21
2022-12-03T02:12:01.203Z,78.70
2022-12-03T02:12:16.046Z,78.51
2022-12-03T02:12:33.656Z,77.76
2022-12-03T02:12:54.568Z,78.83
2022-12-03T02:13:09.355Z,78.69
2022-12-03T02:13:21.710Z,78.15
2022-12-03T02:13:33.759Z,78.05
2022-12-03T02:13:47.796Z,78.48
2022-12-03T02:14:04.211Z,77.94
2022-12-03T02:14:20.129Z,77.62
2022-12-03T02:14:32.509Z,78.06
2022-12-03T02:14:44.557Z,77.14
2022-12-03T02:14:57.467Z,78.21
2022-12-03T02:15:10.960Z,77.95
2022-12-03T02:15:23.546Z,77.64
2022-12-03T02:15:38.444Z,78.08
2022-12-03T02:15:50.472Z,77.79
2022-12-03T02:16:03.817Z,77.18
2022-12-03T02:16:16.020Z,77.62
2022-12-03T02:16:29.129Z,77.81
2022-12-03T02:16:42.207Z,78.17
2022-12-03T02:16:54.299Z,78.24
2022-12-03T02:17:06.600Z,78.43
2022-12-03T02:17:18.742Z,78.21
2022-12-03T02:17:31.003Z,78.86
2022-12-03T02:17:43.258Z,78.19
2022-12-03T02:17:55.557Z,77.86
2022-12-03T02:18:08.975Z,78.40
2022-12-03T02:18:21.247Z,77.60
2022-12-03T02:18:33.863Z,78.72
2022-12-03T02:18:45.979Z,78.28
2022-12-03T02:18:58.610Z,78.55
2022-12-03T02:19:20.920Z,78.97
2022-12-03T02:19:33.233Z,78.77
2022-12-03T02:19:46.001Z,78.39
2022-12-03T02:19:59.111Z,78.45
2022-12-03T02:20:12.044Z,78.33
2022-12-03T02:20:24.213Z,77.89
2022-12-03T02:20:46.863Z,78.08
2022-12-03T02:21:33.928Z,77.60
2022-12-03T02:22:17.955Z,78.00
2022-12-03T02:22:34.886Z,77.82
2022-12-03T02:23:13.862Z,78.07
2022-12-03T02:23:40.755Z,78.74
2022-12-03T02:24:21.998Z,78.41
2022-12-03T02:24:53.102Z,79.22
2022-12-03T02:25:32.550Z,79.16
2022-12-03T02:25:44.489Z,79.79
2022-12-03T02:25:56.517Z,79.68
2022-12-03T02:26:08.821Z,79.72
2022-12-03T02:26:21.189Z,79.11
2022-12-03T02:26:33.362Z,79.67
2022-12-03T02:26:45.558Z,79.63
2022-12-03T02:26:57.496Z,79.61
2022-12-03T02:27:09.473Z,79.71
2022-12-03T02:27:22.166Z,79.65
2022-12-03T02:27:34.161Z,78.88
2022-12-03T02:27:47.833Z,79.17
2022-12-03T02:28:00.614Z,78.95
2022-12-03T02:28:12.856Z,78.54
2022-12-03T02:28:24.957Z,78.62
2022-12-03T02:28:38.196Z,78.92
2022-12-03T02:28:50.267Z,78.89
2022-12-03T02:29:02.607Z,78.63
2022-12-03T02:29:14.587Z,79.09
2022-12-03T02:29:26.683Z,78.88
2022-12-03T02:29:38.775Z,78.47
2022-12-03T02:29:51.316Z,78.88
2022-12-03T02:30:05.531Z,79.27
2022-12-03T02:30:21.754Z,78.51
2022-12-03T02:30:33.976Z,78.48
2022-12-03T02:30:45.915Z,78.84
2022-12-03T02:30:58.173Z,79.08
2022-12-03T02:31:10.398Z,78.56
2022-12-03T02:31:23.691Z,78.77
2022-12-03T02:31:36.025Z,78.54
2022-12-03T02:31:48.426Z,78.66
2022-12-03T02:32:00.649Z,78.83
2022-12-03T02:32:12.683Z,78.93
2022-12-03T02:32:24.656Z,79.18
2022-12-03T02:32:37.476Z,78.95
2022-12-03T02:32:52.166Z,78.64
2022-12-03T02:33:04.243Z,78.38
2022-12-03T02:33:16.729Z,78.73
2022-12-03T02:33:28.648Z,79.58
2022-12-03T02:33:40.826Z,79.84
2022-12-03T02:33:52.826Z,78.94
2022-12-03T02:34:08.871Z,79.29
2022-12-03T02:34:53.228Z,79.79
2022-12-03T02:35:06.293Z,78.77
2022-12-03T02:35:23.806Z,79.32
2022-12-03T02:35:37.170Z,79.31
2022-12-03T02:35:49.457Z,79.39
2022-12-03T02:36:03.941Z,80.05
2022-12-03T02:36:16.888Z,80.00
2022-12-03T02:36:28.891Z,79.42
2022-12-03T02:36:40.909Z,79.70
2022-12-03T02:36:53.022Z,79.63
2022-12-03T02:37:07.570Z,78.86
2022-12-03T02:37:24.519Z,79.68
2022-12-03T02:37:37.418Z,79.64
2022-12-03T02:37:52.810Z,79.88
2022-12-03T02:38:24.808Z,80.12
2022-12-03T02:38:37.125Z,80.49
2022-12-03T02:38:49.962Z,79.94
2022-12-03T02:39:02.707Z,80.18
2022-12-03T02:39:14.634Z,79.79
2022-12-03T02:39:26.905Z,80.06
2022-12-03T02:39:42.912Z,79.94
2022-12-03T02:39:58.615Z,80.03
2022-12-03T02:40:15.000Z,80.10
2022-12-03T02:40:30.928Z,79.66
2022-12-03T02:40:45.817Z,79.95
2022-12-03T02:41:02.557Z,79.75
2022-12-03T02:41:37.305Z,79.61
2022-12-03T02:42:08.232Z,79.31
2022-12-03T02:42:36.223Z,79.29
2022-12-03T02:42:51.196Z,79.31
2022-12-03T02:43:04.463Z,79.53
2022-12-03T02:43:18.344Z,78.99
2022-12-03T02:43:30.788Z,79.22
2022-12-03T02:43:43.115Z,78.41
2022-12-03T02:43:54.997Z,78.76
2022-12-03T02:44:08.610Z,78.02
2022-12-03T02:44:20.600Z,78.88
2022-12-03T02:44:32.573Z,78.76
2022-12-03T02:44:44.580Z,78.88
2022-12-03T02:45:04.891Z,78.67
2022-12-03T02:45:17.526Z,78.47
2022-12-03T02:45:36.200Z,78.53
2022-12-03T02:45:53.363Z,79.18
2022-12-03T02:46:08.064Z,79.31
2022-12-03T02:46:20.033Z,79.38
2022-12-03T02:46:33.338Z,79.33
2022-12-03T02:46:45.374Z,79.92
2022-12-03T02:46:57.525Z,79.15
2022-12-03T02:47:09.814Z,79.30
2022-12-03T02:47:22.629Z,79.15
2022-12-03T02:47:40.523Z,78.43
2022-12-03T02:48:02.550Z,78.63
2022-12-03T02:48:19.473Z,78.68
2022-12-03T02:48:35.638Z,79.13
2022-12-03T02:48:47.619Z,79.11
2022-12-03T02:49:01.083Z,79.58
2022-12-03T02:49:13.143Z,79.30
2022-12-03T02:49:25.349Z,78.96
2022-12-03T02:49:37.367Z,78.59
2022-12-03T02:49:50.716Z,79.01
2022-12-03T02:50:03.133Z,78.86
2022-12-03T02:50:19.645Z,79.05
2022-12-03T02:50:34.483Z,79.13
2022-12-03T02:50:51.948Z,79.68
2022-12-03T02:51:10.174Z,79.56
2022-12-03T02:51:22.315Z,80.56
2022-12-03T02:51:34.842Z,79.62
2022-12-03T02:51:46.753Z,80.34
2022-12-03T02:51:58.722Z,80.44
2022-12-03T02:52:10.823Z,80.01
2022-12-03T02:52:23.360Z,79.69
2022-12-03T02:52:35.828Z,80.38
2022-12-03T02:52:48.632Z,80.27
2022-12-03T02:53:04.529Z,79.98
2022-12-03T02:53:25.514Z,79.65
2022-12-03T02:53:44.601Z,79.59